Time;durP1;ratioP1;P1;durP2;ratioP2;P2;SDS_P1;SDS_P2;PMS_P1;PMS_P2;Temp;Humidity;BMP_temperature;BMP_pressure;BME280_temperature;BME280_humidity;BME280_pressure;Samples;Min_cycle;Max_cycle;Signal;HPM_P1;HPM_P2
2022/10/28 00:04:48;;;;;;;0.10;0.10;;;;;;;13.76;100.00;101871.41;10475405;28;20025;-78
2022/10/28 00:09:49;;;;;;;0.10;0.10;;;;;;;13.79;100.00;101874.63;10457467;28;20387;-77
2022/10/28 00:14:49;;;;;;;0.00;0.00;;;;;;;13.75;100.00;101862.53;10457745;28;20430;-78
2022/10/28 00:19:49;;;;;;;0.10;0.10;;;;;;;13.70;100.00;101861.31;10472476;28;20028;-78
2022/10/28 00:24:50;;;;;;;0.10;0.10;;;;;;;13.63;100.00;101863.75;10498094;28;20499;-78
2022/10/28 00:29:50;;;;;;;0.10;0.10;;;;;;;13.59;100.00;101867.75;10498034;28;20360;-78
2022/10/28 00:34:51;;;;;;;0.10;0.10;;;;;;;13.58;100.00;101860.69;10491942;28;20539;-78
2022/10/28 00:39:51;;;;;;;0.10;0.10;;;;;;;13.53;100.00;101861.19;10471950;28;20029;-78
2022/10/28 00:44:58;;;;;;;0.10;0.10;;;;;;;13.50;100.00;101868.69;10455013;28;20033;-78
2022/10/28 00:50:18;;;;;;;0.10;0.10;;;;;;;13.45;100.00;101871.81;10464525;28;20031;-78
2022/10/28 00:55:20;;;;;;;0.10;0.10;;;;;;;13.40;100.00;101863.38;10504750;28;20513;-76
2022/10/28 01:00:23;;;;;;;0.10;0.10;;;;;;;13.34;100.00;101870.19;10505068;28;20028;-78
2022/10/28 01:05:27;;;;;;;0.00;0.00;;;;;;;13.30;100.00;101867.97;10498275;28;20017;-78
2022/10/28 01:10:43;;;;;;;0.10;0.10;;;;;;;13.21;100.00;101856.31;10463128;28;20118;-78
2022/10/28 01:15:47;;;;;;;0.10;0.10;;;;;;;13.13;100.00;101849.03;10462880;28;20025;-78
2022/10/28 01:21:09;;;;;;;0.10;0.10;;;;;;;13.05;100.00;101858.81;10463123;28;20029;-77
2022/10/28 01:26:21;;;;;;;0.10;0.10;;;;;;;12.96;100.00;101854.34;10460801;28;20025;-77
2022/10/28 01:31:36;;;;;;;0.10;0.10;;;;;;;12.95;100.00;101856.19;10464616;28;20387;-76
2022/10/28 01:36:47;;;;;;;0.00;0.00;;;;;;;13.00;100.00;101853.91;10502810;28;20028;-77
2022/10/28 01:41:59;;;;;;;0.10;0.10;;;;;;;13.03;100.00;101858.97;10482413;28;20049;-78
2022/10/28 01:47:09;;;;;;;0.10;0.10;;;;;;;13.07;100.00;101862.19;10473081;28;20021;-78
2022/10/28 01:52:13;;;;;;;0.10;0.10;;;;;;;13.08;100.00;101859.34;10461188;28;20032;-78
2022/10/28 01:57:14;;;;;;;0.07;0.07;;;;;;;13.14;100.00;101852.53;10491428;28;20028;-75
2022/10/28 02:02:16;;;;;;;0.10;0.10;;;;;;;13.23;100.00;101845.44;10495169;28;20024;-78
2022/10/28 02:07:16;;;;;;;0.10;0.10;;;;;;;13.24;100.00;101855.19;10488172;28;20017;-78
2022/10/28 02:12:24;;;;;;;0.10;0.10;;;;;;;13.18;100.00;101858.44;10501180;28;20027;-78
2022/10/28 02:17:36;;;;;;;0.10;0.10;;;;;;;13.10;100.00;101859.19;10492861;28;20067;-78
2022/10/28 02:22:48;;;;;;;0.10;0.10;;;;;;;12.99;100.00;101848.72;10499743;28;20030;-78
2022/10/28 02:27:57;;;;;;;0.10;0.10;;;;;;;12.83;100.00;101839.50;10492361;28;20064;-78
2022/10/28 02:33:01;;;;;;;0.10;0.10;;;;;;;12.72;100.00;101834.38;10470359;28;20476;-77
2022/10/28 02:38:07;;;;;;;0.10;0.10;;;;;;;12.71;100.00;101821.97;10459544;28;20112;-78
2022/10/28 02:43:11;;;;;;;0.00;0.00;;;;;;;12.44;100.00;101802.28;10493305;28;20024;-78
2022/10/28 02:48:29;;;;;;;0.00;0.00;;;;;;;12.27;100.00;101792.34;10500105;28;20021;-78
2022/10/28 02:53:35;;;;;;;0.00;0.00;;;;;;;12.21;100.00;101806.31;10482121;28;20025;-78
2022/10/28 02:58:39;;;;;;;0.10;0.10;;;;;;;12.15;100.00;101794.38;10488289;28;20033;-78
2022/10/28 03:03:40;;;;;;;0.10;0.10;;;;;;;12.16;100.00;101803.25;10477131;28;20399;-78
2022/10/28 03:08:41;;;;;;;0.10;0.10;;;;;;;12.15;100.00;101796.19;10477040;28;20036;-78
2022/10/28 03:13:41;;;;;;;0.00;0.00;;;;;;;12.23;100.00;101794.50;10457575;28;20029;-77
2022/10/28 03:18:41;;;;;;;0.10;0.10;;;;;;;12.41;100.00;101773.16;10473221;28;20016;-77
2022/10/28 03:23:42;;;;;;;0.10;0.10;;;;;;;12.59;100.00;101773.22;10482064;28;20092;-77
2022/10/28 03:28:42;;;;;;;0.10;0.10;;;;;;;12.69;100.00;101768.66;10467998;28;20016;-77
2022/10/28 03:33:42;;;;;;;0.10;0.10;;;;;;;12.80;100.00;101764.09;10498993;28;20031;-77
2022/10/28 03:38:42;;;;;;;0.00;0.00;;;;;;;12.90;100.00;101768.38;10482136;28;20056;-78
2022/10/28 03:43:43;;;;;;;0.10;0.10;;;;;;;12.96;100.00;101780.31;10457036;28;20032;-78
2022/10/28 03:48:43;;;;;;;0.10;0.10;;;;;;;13.01;100.00;101780.72;10471095;28;20020;-78
2022/10/28 03:53:43;;;;;;;0.10;0.10;;;;;;;13.08;100.00;101757.69;10487917;28;20555;-78
2022/10/28 03:58:46;;;;;;;0.10;0.10;;;;;;;13.10;100.00;101766.41;10497287;28;20482;-77
2022/10/28 04:03:47;;;;;;;0.10;0.10;;;;;;;13.06;100.00;101765.06;10497066;28;20503;-78
2022/10/28 04:08:47;;;;;;;0.10;0.10;;;;;;;13.07;100.00;101772.06;10471777;28;20017;-78
2022/10/28 04:13:47;;;;;;;0.10;0.10;;;;;;;13.07;100.00;101771.25;10487151;28;20036;-78
2022/10/28 04:18:47;;;;;;;0.10;0.10;;;;;;;13.04;100.00;101766.19;10466685;28;20017;-77
2022/10/28 04:23:48;;;;;;;0.00;0.00;;;;;;;13.00;100.00;101780.84;10497732;28;20024;-78
2022/10/28 04:28:48;;;;;;;0.00;0.00;;;;;;;12.95;100.00;101775.97;10466563;28;20399;-78
2022/10/28 04:33:48;;;;;;;0.10;0.10;;;;;;;12.89;100.00;101787.28;10464549;28;20384;-77
2022/10/28 04:38:50;;;;;;;0.10;0.10;;;;;;;12.81;100.00;101774.66;10504527;28;20085;-78
2022/10/28 04:43:51;;;;;;;0.10;0.10;;;;;;;12.76;100.00;101773.41;10498055;28;20028;-78
2022/10/28 04:48:51;;;;;;;0.10;0.10;;;;;;;12.74;100.00;101762.03;10463525;28;20024;-77
2022/10/28 04:53:51;;;;;;;0.10;0.10;;;;;;;12.75;100.00;101761.06;10463746;28;20077;-77
2022/10/28 04:58:51;;;;;;;0.10;0.10;;;;;;;12.70;100.00;101756.13;10492950;28;20028;-77
2022/10/28 05:03:52;;;;;;;0.00;0.00;;;;;;;12.73;100.00;101755.00;10465286;28;20020;-77
2022/10/28 05:08:52;;;;;;;0.10;0.10;;;;;;;12.73;100.00;101741.63;10477916;28;20027;-78
2022/10/28 05:13:53;;;;;;;0.10;0.10;;;;;;;12.73;100.00;101734.44;10485239;28;20020;-77
2022/10/28 05:18:53;;;;;;;0.10;0.10;;;;;;;12.69;100.00;101730.41;10484453;28;20021;-78
2022/10/28 05:23:53;;;;;;;0.00;0.00;;;;;;;12.64;100.00;101724.66;10474196;28;20040;-78
2022/10/28 05:28:54;;;;;;;0.10;0.10;;;;;;;12.46;100.00;101719.31;10502706;28;20020;-78
2022/10/28 05:33:54;;;;;;;0.10;0.10;;;;;;;12.38;100.00;101719.19;10473925;28;20044;-78
2022/10/28 05:38:54;;;;;;;0.10;0.10;;;;;;;12.31;100.00;101715.47;10476886;28;20013;-78
2022/10/28 05:43:54;;;;;;;0.03;0.03;;;;;;;12.17;100.00;101714.94;10490680;28;20051;-78
2022/10/28 05:48:55;;;;;;;0.10;0.10;;;;;;;12.02;100.00;101724.44;10502434;28;20020;-77
2022/10/28 05:53:55;;;;;;;0.10;0.10;;;;;;;11.79;100.00;101716.75;10475449;28;20029;-78
2022/10/28 05:58:55;;;;;;;0.10;0.10;;;;;;;11.69;100.00;101720.44;10484202;28;20024;-78
2022/10/28 06:03:56;;;;;;;0.10;0.10;;;;;;;11.64;100.00;101723.53;10499764;28;20024;-77
2022/10/28 06:08:56;;;;;;;0.00;0.00;;;;;;;11.69;100.00;101720.44;10501815;28;20070;-77
2022/10/28 06:13:57;;;;;;;0.10;0.10;;;;;;;11.77;100.00;101710.72;10495658;28;20031;-77
2022/10/28 06:18:57;;;;;;;0.10;0.10;;;;;;;11.86;100.00;101717.03;10500542;28;20031;-77
2022/10/28 06:23:57;;;;;;;0.10;0.10;;;;;;;11.95;100.00;101715.31;10472778;28;20089;-77
2022/10/28 06:28:57;;;;;;;0.10;0.10;;;;;;;12.03;100.00;101725.28;10476581;28;20108;-77
2022/10/28 06:33:58;;;;;;;0.10;0.10;;;;;;;12.16;100.00;101723.13;10497068;28;20483;-77
2022/10/28 06:38:58;;;;;;;0.10;0.10;;;;;;;12.33;100.00;101724.13;10498074;28;20481;-78
2022/10/28 06:43:58;;;;;;;0.10;0.10;;;;;;;12.49;100.00;101716.31;10459177;28;20456;-78
2022/10/28 06:49:01;;;;;;;0.10;0.10;;;;;;;12.68;100.00;101721.56;10457936;28;20024;-78
2022/10/28 06:54:02;;;;;;;0.10;0.10;;;;;;;12.90;100.00;101712.22;10486139;28;20029;-78
2022/10/28 06:59:02;;;;;;;0.10;0.10;;;;;;;13.10;100.00;101722.78;10499750;28;20103;-78
2022/10/28 07:04:02;;;;;;;0.10;0.10;;;;;;;13.31;100.00;101717.13;10482116;28;20119;-78
2022/10/28 07:09:03;;;;;;;0.03;0.03;;;;;;;13.47;100.00;101719.09;10518383;28;20019;-78
2022/10/28 07:14:03;;;;;;;0.10;0.10;;;;;;;13.65;100.00;101722.56;10472130;28;20544;-78
2022/10/28 07:19:03;;;;;;;0.00;0.00;;;;;;;13.88;100.00;101730.91;10463840;28;20021;-78
2022/10/28 07:24:04;;;;;;;0.10;0.10;;;;;;;14.03;100.00;101732.00;10458470;28;20427;-78
2022/10/28 07:29:04;;;;;;;0.10;0.10;;;;;;;14.25;100.00;101729.72;10458776;28;20025;-78
2022/10/28 07:34:04;;;;;;;0.00;0.00;;;;;;;14.43;100.00;101733.16;10458420;28;20029;-78
2022/10/28 07:39:05;;;;;;;0.10;0.10;;;;;;;14.94;100.00;101727.78;10494783;28;20054;-78
2022/10/28 07:44:05;;;;;;;0.10;0.10;;;;;;;15.91;100.00;101722.53;10481971;28;20069;-78
2022/10/28 07:49:06;;;;;;;0.10;0.10;;;;;;;16.28;100.00;101717.34;10496365;28;20052;-77
2022/10/28 07:54:06;;;;;;;0.10;0.10;;;;;;;16.86;100.00;101725.13;10473736;28;20275;-77
2022/10/28 07:59:06;;;;;;;0.00;0.00;;;;;;;17.42;100.00;101734.63;10497948;28;20035;-78
2022/10/28 08:04:07;;;;;;;0.00;0.00;;;;;;;17.87;100.00;101726.63;10487973;22;20052;-79
2022/10/28 08:09:07;;;;;;;0.03;0.03;;;;;;;18.33;100.00;101721.84;10494415;28;20100;-78
2022/10/28 08:14:07;;;;;;;0.10;0.10;;;;;;;18.62;100.00;101724.69;10502570;28;20104;-78
2022/10/28 08:19:09;;;;;;;0.10;0.10;;;;;;;18.88;100.00;101719.59;10490445;28;20027;-78
2022/10/28 08:24:10;;;;;;;0.00;0.00;;;;;;;19.05;100.00;101711.22;10494134;28;20020;-78
2022/10/28 08:29:11;;;;;;;0.00;0.00;;;;;;;19.16;100.00;101716.94;10493292;28;20040;-78
2022/10/28 08:34:11;;;;;;;0.10;0.10;;;;;;;19.41;100.00;101700.31;10497407;28;20023;-78
2022/10/28 08:39:11;;;;;;;0.10;0.10;;;;;;;19.63;100.00;101701.09;10491617;28;20108;-78
2022/10/28 08:44:30;;;;;;;0.10;0.10;;;;;;;19.76;100.00;101712.03;10500742;28;20040;-79
2022/10/28 08:49:35;;;;;;;0.00;0.00;;;;;;;19.94;100.00;101707.97;10493493;28;20104;-78
2022/10/28 08:54:45;;;;;;;0.00;0.00;;;;;;;19.79;100.00;101706.22;10501751;28;20043;-78
2022/10/28 08:59:48;;;;;;;0.10;0.10;;;;;;;19.73;100.00;101709.72;10492935;28;20532;-77
2022/10/28 09:05:16;;;;;;;0.00;0.00;;;;;;;19.59;100.00;101707.94;10491990;28;20024;-80
2022/10/28 09:10:30;;;;;;;0.00;0.00;;;;;;;19.45;100.00;101705.13;10491464;28;20020;-77
2022/10/28 09:15:46;;;;;;;0.10;0.10;;;;;;;19.29;100.00;101700.03;10505289;28;20062;-77
2022/10/28 09:20:57;;;;;;;0.10;0.10;;;;;;;19.38;100.00;101698.03;10500966;28;20116;-77
2022/10/28 09:26:01;;;;;;;0.00;0.00;;;;;;;19.50;100.00;101695.59;10500687;28;20025;-77
2022/10/28 09:31:01;;;;;;;0.00;0.00;;;;;;;19.62;100.00;101694.84;10490843;28;20059;-77
2022/10/28 09:36:10;;;;;;;0.10;0.10;;;;;;;19.76;100.00;101697.69;10504741;28;20430;-79
2022/10/28 09:41:21;;;;;;;0.10;0.10;;;;;;;19.93;100.00;101690.09;10499273;28;20443;-78
2022/10/28 09:46:26;;;;;;;0.00;0.00;;;;;;;20.00;100.00;101693.66;10499021;28;20110;-79
2022/10/28 09:51:51;;;;;;;0.00;0.00;;;;;;;20.06;100.00;101699.09;10499750;28;20498;-77
2022/10/28 09:56:52;;;;;;;0.10;0.10;;;;;;;19.95;100.00;101691.53;10503044;28;20031;-79
2022/10/28 10:01:52;;;;;;;0.10;0.10;;;;;;;19.83;100.00;101703.94;10495517;28;20348;-78
2022/10/28 10:07:02;;;;;;;0.10;0.10;;;;;;;19.75;100.00;101698.69;10504395;28;20455;-78
2022/10/28 10:12:08;;;;;;;0.10;0.10;;;;;;;19.71;100.00;101708.25;10501734;28;20028;-78
2022/10/28 10:17:15;;;;;;;0.03;0.03;;;;;;;19.70;100.00;101696.59;10496698;28;20082;-80
2022/10/28 10:22:43;;;;;;;0.00;0.00;;;;;;;19.73;100.00;101690.81;10489381;28;20252;-79
2022/10/28 10:27:58;;;;;;;0.10;0.10;;;;;;;19.71;100.00;101689.34;10495700;28;20035;-79
2022/10/28 10:32:59;;;;;;;0.00;0.00;;;;;;;19.73;100.00;101684.56;10497517;28;20025;-78
2022/10/28 10:38:03;;;;;;;0.10;0.10;;;;;;;19.73;100.00;101682.69;10501781;28;20020;-78
2022/10/28 10:43:23;;;;;;;0.00;0.00;;;;;;;19.75;100.00;101685.19;10496044;28;20063;-78
2022/10/28 10:48:23;;;;;;;0.10;0.10;;;;;;;19.79;100.00;101671.09;10500253;28;20021;-77
2022/10/28 10:53:27;;;;;;;0.00;0.00;;;;;;;19.82;100.00;101667.97;10502712;28;20044;-78
2022/10/28 10:58:31;;;;;;;0.00;0.00;;;;;;;19.83;100.00;101669.63;10496087;28;20127;-79
2022/10/28 11:03:35;;;;;;;0.00;0.00;;;;;;;19.81;100.00;101655.50;10495515;28;20032;-77
2022/10/28 11:08:41;;;;;;;0.00;0.00;;;;;;;19.83;100.00;101664.22;10501231;28;20104;-78
2022/10/28 11:13:41;;;;;;;0.10;0.10;;;;;;;19.87;100.00;101651.16;10501339;28;20020;-77
2022/10/28 11:18:45;;;;;;;0.10;0.10;;;;;;;19.85;100.00;101648.66;10500069;28;20024;-77
2022/10/28 11:24:03;;;;;;;;;;;;;;;19.85;100.00;101651.34;10492587;28;20036;-77
2022/10/28 11:29:10;;;;;;;0.05;0.05;;;;;;;19.93;100.00;101654.94;10490942;28;19908;-79
2022/10/28 11:34:11;;;;;;;0.00;0.00;;;;;;;19.93;100.00;101654.94;10487986;28;20028;-78
2022/10/28 11:39:19;;;;;;;0.00;0.00;;;;;;;19.89;100.00;101644.50;10499156;28;20067;-77
2022/10/28 11:45:03;;;;;;;0.00;0.00;;;;;;;19.87;100.00;101637.66;10499682;28;20016;-78
2022/10/28 11:50:21;;;;;;;0.10;0.10;;;;;;;19.88;100.00;101634.72;10468005;28;20071;-79
2022/10/28 11:55:37;;;;;;;0.10;0.10;;;;;;;20.00;100.00;101632.28;10499723;28;20450;-79
2022/10/28 12:00:44;;;;;;;0.00;0.00;;;;;;;20.08;100.00;101636.69;10490892;28;20039;-78
2022/10/28 12:05:58;;;;;;;0.03;0.03;;;;;;;20.17;100.00;101627.38;10498831;28;20515;-80
2022/10/28 12:11:08;;;;;;;0.10;0.10;;;;;;;20.18;100.00;101626.31;10501543;28;20048;-79
2022/10/28 12:16:25;;;;;;;0.10;0.10;;;;;;;20.03;100.00;101629.19;10496372;28;20467;-79
2022/10/28 12:21:39;;;;;;;0.10;0.10;;;;;;;19.87;100.00;101632.25;10492857;28;20017;-78
2022/10/28 12:26:44;;;;;;;0.00;0.00;;;;;;;19.73;100.00;101630.50;10500340;28;20009;-79
2022/10/28 12:31:50;;;;;;;0.00;0.00;;;;;;;19.63;100.00;101622.72;10487919;28;20102;-78
2022/10/28 12:37:00;;;;;;;0.05;0.05;;;;;;;19.57;100.00;101612.72;10493316;28;20021;-79
2022/10/28 12:42:19;;;;;;;0.00;0.00;;;;;;;19.58;100.00;101607.13;10493537;28;20020;-77
2022/10/28 12:47:20;;;;;;;0.00;0.00;;;;;;;19.64;100.00;101600.09;10494998;28;20013;-78
2022/10/28 12:52:30;;;;;;;0.00;0.00;;;;;;;19.79;100.00;101591.88;10504827;28;20048;-78
2022/10/28 12:57:33;;;;;;;0.10;0.10;;;;;;;19.90;100.00;101600.22;10503141;28;20028;-77
2022/10/28 13:02:47;;;;;;;0.10;0.10;;;;;;;19.97;100.00;101596.72;10494412;28;20025;-77
2022/10/28 13:07:57;;;;;;;0.08;0.08;;;;;;;19.99;100.00;101591.94;10504193;28;20475;-78
2022/10/28 13:13:10;;;;;;;0.10;0.10;;;;;;;19.98;100.00;101599.19;10497401;28;20047;-78
2022/10/28 13:18:44;;;;;;;0.00;0.00;;;;;;;19.94;100.00;101589.00;10490421;28;20024;-78
2022/10/28 13:24:17;;;;;;;0.10;0.10;;;;;;;19.87;100.00;101602.50;10507643;28;20101;-79
2022/10/28 13:29:24;;;;;;;0.10;0.10;;;;;;;19.79;100.00;101581.06;10495042;28;20028;-78
2022/10/28 13:34:30;;;;;;;0.10;0.10;;;;;;;19.69;100.00;101586.81;10501846;28;20029;-77
2022/10/28 13:39:31;;;;;;;0.00;0.00;;;;;;;19.61;100.00;101582.41;10505271;28;20029;-79
2022/10/28 13:44:45;;;;;;;0.10;0.10;;;;;;;19.52;100.00;101580.91;10507149;28;20016;-78
2022/10/28 13:50:07;;;;;;;0.00;0.00;;;;;;;19.43;100.00;101582.94;10503474;28;20013;-79
2022/10/28 13:55:13;;;;;;;0.00;0.00;;;;;;;19.34;100.00;101575.16;10501369;28;20558;-78
2022/10/28 14:00:16;;;;;;;0.00;0.00;;;;;;;19.22;100.00;101561.38;10494124;28;20025;-78
2022/10/28 14:05:25;;;;;;;0.00;0.00;;;;;;;19.15;100.00;101568.63;10510557;22;20415;-77
2022/10/28 14:10:27;;;;;;;0.00;0.00;;;;;;;19.06;100.00;101569.81;10500855;28;20048;-77
2022/10/28 14:15:31;;;;;;;0.10;0.10;;;;;;;18.98;100.00;101560.81;10499357;28;20024;-76
2022/10/28 14:20:38;;;;;;;0.00;0.00;;;;;;;18.92;100.00;101560.78;10500416;28;20423;-77
2022/10/28 14:25:39;;;;;;;0.00;0.00;;;;;;;18.86;100.00;101553.47;10500129;28;20020;-77
2022/10/28 14:30:41;;;;;;;0.00;0.00;;;;;;;18.79;100.00;101548.00;10499530;28;20040;-77
2022/10/28 14:35:45;;;;;;;0.00;0.00;;;;;;;18.67;100.00;101547.66;10498785;28;20029;-77
2022/10/28 14:40:50;;;;;;;0.00;0.00;;;;;;;18.64;100.00;101563.41;10498753;28;20545;-77
2022/10/28 14:46:08;;;;;;;0.00;0.00;;;;;;;18.53;100.00;101549.44;10480825;28;20020;-74
2022/10/28 14:51:14;;;;;;;0.00;0.00;;;;;;;18.46;100.00;101542.31;10498199;28;20052;-77
2022/10/28 14:56:26;;;;;;;0.00;0.00;;;;;;;18.37;100.00;101538.91;10497898;28;20483;-77
2022/10/28 15:01:44;;;;;;;0.10;0.10;;;;;;;18.29;100.00;101537.16;10497866;28;20029;-77
2022/10/28 15:06:46;;;;;;;0.10;0.10;;;;;;;18.18;100.00;101535.00;10497315;28;20079;-76
2022/10/28 15:11:51;;;;;;;0.10;0.10;;;;;;;18.03;100.00;101526.94;10533931;28;20024;-77
2022/10/28 15:16:52;;;;;;;0.00;0.00;;;;;;;17.92;100.00;101540.94;10539047;28;20024;-78
2022/10/28 15:22:05;;;;;;;0.10;0.10;;;;;;;17.82;100.00;101552.00;10539472;28;20030;-79
2022/10/28 15:27:10;;;;;;;0.10;0.10;;;;;;;17.70;100.00;101552.66;10540296;28;20052;-79
2022/10/28 15:32:12;;;;;;;0.10;0.10;;;;;;;17.57;100.00;101556.00;10541744;28;20024;-78
2022/10/28 15:37:21;;;;;;;0.00;0.00;;;;;;;17.42;100.00;101553.31;10541015;28;20107;-78
2022/10/28 15:42:29;;;;;;;0.00;0.00;;;;;;;17.28;100.00;101548.78;10541486;28;20031;-79
2022/10/28 15:47:32;;;;;;;0.10;0.10;;;;;;;17.14;100.00;101553.16;10541330;28;20024;-79
2022/10/28 15:52:35;;;;;;;0.10;0.10;;;;;;;17.01;100.00;101556.47;10523174;28;20403;-79
2022/10/28 15:57:47;;;;;;;0.10;0.10;;;;;;;16.88;100.00;101543.66;10516440;28;20021;-78
2022/10/28 16:03:04;;;;;;;0.10;0.10;;;;;;;16.75;100.00;101549.66;10498710;28;20570;-79
2022/10/28 16:08:24;;;;;;;0.00;0.00;;;;;;;16.65;100.00;101537.47;10499360;28;20021;-78
2022/10/28 16:13:28;;;;;;;0.00;0.00;;;;;;;16.55;100.00;101548.47;10498922;28;20017;-78
2022/10/28 16:18:32;;;;;;;0.00;0.00;;;;;;;16.51;100.00;101563.28;10498974;28;20074;-77
2022/10/28 16:23:37;;;;;;;0.10;0.10;;;;;;;16.49;100.00;101563.47;10500107;28;20390;-79
2022/10/28 16:28:37;;;;;;;0.10;0.10;;;;;;;16.40;100.00;101558.31;10485462;28;20636;-79
2022/10/28 16:33:37;;;;;;;0.10;0.10;;;;;;;16.29;100.00;101573.88;10503625;28;20024;-79
2022/10/28 16:38:38;;;;;;;0.05;0.05;;;;;;;16.24;100.00;101572.72;10484040;28;20020;-79
2022/10/28 16:43:39;;;;;;;0.10;0.10;;;;;;;16.20;100.00;101574.09;10502143;28;20035;-79
2022/10/28 16:48:40;;;;;;;0.00;0.00;;;;;;;16.16;100.00;101575.47;10502479;28;20028;-78
2022/10/28 16:53:45;;;;;;;0.00;0.00;;;;;;;16.16;100.00;101578.16;10503387;28;20024;-79
2022/10/28 16:58:46;;;;;;;0.10;0.10;;;;;;;16.14;100.00;101569.44;10501880;28;20098;-79
2022/10/28 17:03:46;;;;;;;0.10;0.10;;;;;;;16.13;100.00;101579.34;10501405;28;20121;-79
2022/10/28 17:08:46;;;;;;;0.00;0.00;;;;;;;16.14;100.00;101582.88;10500582;28;20040;-78
2022/10/28 17:13:47;;;;;;;0.00;0.00;;;;;;;16.12;100.00;101587.59;10501091;28;20347;-78
2022/10/28 17:18:50;;;;;;;0.10;0.10;;;;;;;16.07;100.00;101588.94;10500533;28;20027;-76
2022/10/28 17:23:50;;;;;;;0.10;0.10;;;;;;;16.05;100.00;101595.50;10500064;28;20387;-78
2022/10/28 17:28:51;;;;;;;0.10;0.10;;;;;;;16.07;100.00;101605.06;10499450;28;20253;-77
2022/10/28 17:33:53;;;;;;;0.10;0.10;;;;;;;16.12;100.00;101607.25;10500361;28;20103;-78
2022/10/28 17:38:53;;;;;;;0.10;0.10;;;;;;;16.26;100.00;101611.00;10481823;28;20020;-79
2022/10/28 17:43:54;;;;;;;0.10;0.10;;;;;;;16.45;100.00;101596.28;10499873;28;20039;-78
2022/10/28 17:48:54;;;;;;;0.10;0.10;;;;;;;16.70;100.00;101611.22;10499144;28;20475;-78
2022/10/28 17:53:54;;;;;;;0.00;0.00;;;;;;;16.87;100.00;101614.66;10498551;28;20476;-79
2022/10/28 17:58:55;;;;;;;0.10;0.10;;;;;;;16.91;100.00;101609.72;10500757;28;20036;-78
2022/10/28 18:03:55;;;;;;;0.10;0.10;;;;;;;17.01;100.00;101612.16;10501844;28;20275;-78
2022/10/28 18:08:57;;;;;;;0.00;0.00;;;;;;;17.01;100.00;101623.75;10483801;28;20507;-78
2022/10/28 18:13:57;;;;;;;0.10;0.10;;;;;;;16.98;100.00;101618.72;10501649;28;20144;-78
2022/10/28 18:19:01;;;;;;;0.10;0.10;;;;;;;17.00;100.00;101623.94;10501101;28;20524;-78
2022/10/28 18:24:02;;;;;;;0.10;0.10;;;;;;;17.02;100.00;101641.59;10501330;28;20099;-77
2022/10/28 18:29:04;;;;;;;0.00;0.00;;;;;;;17.07;100.00;101641.03;10501063;28;20609;-78
2022/10/28 18:34:05;;;;;;;0.00;0.00;;;;;;;17.07;100.00;101647.25;10500907;28;20031;-78
2022/10/28 18:39:06;;;;;;;0.00;0.00;;;;;;;17.14;100.00;101656.28;10499988;28;20047;-78
2022/10/28 18:44:12;;;;;;;0.05;0.05;;;;;;;17.12;100.00;101655.63;10500190;28;20475;-78
2022/10/28 18:49:13;;;;;;;0.00;0.00;;;;;;;17.07;100.00;101658.00;10499375;28;20048;-78
2022/10/28 18:54:13;;;;;;;0.00;0.00;;;;;;;17.08;100.00;101664.25;10499415;28;20072;-78
2022/10/28 18:59:13;;;;;;;0.10;0.10;;;;;;;17.07;100.00;101671.47;10501659;28;20076;-78
2022/10/28 19:04:14;;;;;;;0.00;0.00;;;;;;;17.11;100.00;101682.72;10510827;28;20039;-78
2022/10/28 19:09:14;;;;;;;0.10;0.10;;;;;;;17.08;100.00;101686.63;10500128;28;20022;-78
2022/10/28 19:14:14;;;;;;;0.00;0.00;;;;;;;17.08;100.00;101697.38;10514815;28;20283;-78
2022/10/28 19:19:15;;;;;;;0.00;0.00;;;;;;;17.06;100.00;101703.97;10516095;28;20024;-78
2022/10/28 19:24:16;;;;;;;0.00;0.00;;;;;;;17.13;100.00;101710.28;10516700;28;20024;-78
2022/10/28 19:29:16;;;;;;;0.00;0.00;;;;;;;17.17;100.00;101722.38;10531766;28;20074;-78
2022/10/28 19:34:17;;;;;;;0.00;0.00;;;;;;;17.17;100.00;101719.69;10519208;28;20034;-78
2022/10/28 19:39:18;;;;;;;0.10;0.10;;;;;;;17.17;100.00;101728.59;10526040;28;20119;-78
2022/10/28 19:44:18;;;;;;;0.00;0.00;;;;;;;17.18;100.00;101737.50;10496289;28;20386;-78
2022/10/28 19:49:18;;;;;;;0.00;0.00;;;;;;;17.19;100.00;101739.19;10477319;28;20050;-78
2022/10/28 19:54:19;;;;;;;0.00;0.00;;;;;;;17.17;100.00;101755.53;10495976;28;20081;-78
2022/10/28 19:59:19;;;;;;;0.10;0.10;;;;;;;17.16;100.00;101769.16;10529164;28;20242;-78
2022/10/28 20:04:20;;;;;;;0.00;0.00;;;;;;;17.14;100.00;101773.91;10494455;28;20059;-78
2022/10/28 20:09:20;;;;;;;0.00;0.00;;;;;;;17.14;100.00;101777.41;10536759;28;20016;-78
2022/10/28 20:14:20;;;;;;;0.00;0.00;;;;;;;17.13;100.00;101782.97;10537534;28;20016;-78
2022/10/28 20:24:25;;;;;;;0.10;0.10;;;;;;;17.07;100.00;101805.22;10435956;28;20045;-79
2022/10/28 20:29:25;;;;;;;0.10;0.10;;;;;;;17.01;100.00;101806.75;10453588;28;20028;-78
2022/10/28 20:34:26;;;;;;;0.00;0.00;;;;;;;16.98;100.00;101825.97;10456036;28;20155;-79
2022/10/28 20:39:26;;;;;;;0.00;0.00;;;;;;;16.96;100.00;101834.22;10454826;28;20024;-78
2022/10/28 20:44:26;;;;;;;0.10;0.10;;;;;;;16.91;100.00;101828.53;10457638;28;20115;-78
2022/10/28 20:49:27;;;;;;;0.10;0.10;;;;;;;16.87;100.00;101829.06;10453739;28;20017;-78
2022/10/28 20:54:27;;;;;;;0.00;0.00;;;;;;;16.81;100.00;101821.69;10455067;28;20083;-78
2022/10/28 20:59:27;;;;;;;0.00;0.00;;;;;;;16.68;100.00;101849.97;10456380;28;20017;-77
2022/10/28 21:04:27;;;;;;;0.00;0.00;;;;;;;16.56;100.00;101845.16;10456722;28;20096;-78
2022/10/28 21:09:28;;;;;;;0.20;0.20;;;;;;;16.44;100.00;101856.28;10459984;28;20063;-77
2022/10/28 21:14:29;;;;;;;0.00;0.00;;;;;;;16.35;100.00;101864.50;10465051;28;20017;-78
2022/10/28 21:19:29;;;;;;;0.00;0.00;;;;;;;16.25;100.00;101862.88;10461064;28;20017;-78
2022/10/28 21:24:30;;;;;;;0.00;0.00;;;;;;;16.18;100.00;101890.63;10460731;28;20025;-78
2022/10/28 21:29:30;;;;;;;0.10;0.10;;;;;;;16.20;100.00;101900.19;10465326;28;20021;-79
2022/10/28 21:34:30;;;;;;;0.00;0.00;;;;;;;16.22;100.00;101900.00;10468309;28;20031;-78
2022/10/28 21:39:30;;;;;;;0.10;0.10;;;;;;;16.24;100.00;101906.91;10468046;28;20017;-78
2022/10/28 21:44:31;;;;;;;0.10;0.10;;;;;;;16.23;100.00;101905.22;10466435;28;20469;-79
2022/10/28 21:49:31;;;;;;;0.10;0.10;;;;;;;16.22;100.00;101911.59;10466511;28;20017;-79
2022/10/28 21:54:32;;;;;;;0.00;0.00;;;;;;;16.11;100.00;101905.72;10464878;28;20032;-79
2022/10/28 21:59:33;;;;;;;0.00;0.00;;;;;;;16.02;100.00;101913.78;10467842;28;20017;-76
2022/10/28 22:04:33;;;;;;;0.10;0.10;;;;;;;16.01;100.00;101916.66;10467600;28;20025;-77
2022/10/28 22:09:33;;;;;;;0.00;0.00;;;;;;;16.02;100.00;101923.69;10467224;28;20089;-79
2022/10/28 22:14:34;;;;;;;0.00;0.00;;;;;;;15.99;100.00;101914.13;10467091;28;20316;-78
2022/10/28 22:19:34;;;;;;;0.10;0.10;;;;;;;15.90;100.00;101903.56;10465100;28;20021;-76
2022/10/28 22:24:34;;;;;;;0.00;0.00;;;;;;;15.73;100.00;101905.38;10465026;28;20279;-79
2022/10/28 22:29:35;;;;;;;0.00;0.00;;;;;;;15.58;100.00;101914.06;10468020;28;20017;-79
2022/10/28 22:34:35;;;;;;;0.08;0.08;;;;;;;15.46;100.00;101915.41;10469110;28;20525;-78
2022/10/28 22:39:36;;;;;;;0.00;0.00;;;;;;;15.31;100.00;101920.56;10466850;28;20073;-78
2022/10/28 22:44:36;;;;;;;0.10;0.10;;;;;;;15.28;100.00;101920.91;10469693;28;20024;-78
2022/10/28 22:49:36;;;;;;;0.00;0.00;;;;;;;15.17;100.00;101923.88;10465178;28;20028;-78
2022/10/28 22:54:37;;;;;;;0.00;0.00;;;;;;;15.08;100.00;101914.94;10465555;28;20021;-78
2022/10/28 22:59:37;;;;;;;0.00;0.00;;;;;;;14.99;100.00;101923.16;10466991;28;20009;-77
2022/10/28 23:04:37;;;;;;;0.00;0.00;;;;;;;14.86;100.00;101927.09;10467835;28;20059;-77
2022/10/28 23:09:37;;;;;;;0.10;0.10;;;;;;;14.74;100.00;101930.22;10467307;28;20023;-77